createdAt,value
2023-03-01T00:02:09.395Z,5.30
2023-03-01T00:04:42.160Z,5.26
2023-03-01T00:07:16.213Z,5.19
2023-03-01T00:09:49.192Z,5.27
2023-03-01T00:12:21.765Z,5.23
2023-03-01T00:14:54.625Z,5.21
2023-03-01T00:17:27.314Z,5.19
2023-03-01T00:20:00.248Z,5.23
2023-03-01T00:22:34.081Z,5.16
2023-03-01T00:25:07.210Z,5.08
2023-03-01T00:27:39.853Z,5.10
2023-03-01T00:30:13.674Z,5.12
2023-03-01T00:32:46.366Z,5.18
2023-03-01T00:35:19.263Z,5.07
2023-03-01T00:37:58.874Z,5.06
2023-03-01T00:40:34.370Z,5.08
2023-03-01T00:43:07.078Z,5.02
2023-03-01T00:45:39.849Z,4.97
2023-03-01T00:48:12.919Z,4.99
2023-03-01T00:50:45.680Z,5.01
2023-03-01T00:53:19.746Z,5.01
2023-03-01T00:55:52.752Z,5.05
2023-03-01T00:58:25.692Z,4.92
2023-03-01T01:00:58.198Z,4.94
2023-03-01T01:03:30.841Z,4.84
2023-03-01T01:06:10.146Z,4.84
2023-03-01T01:08:44.186Z,4.86
2023-03-01T01:11:17.819Z,4.86
2023-03-01T01:13:51.250Z,4.84
2023-03-01T01:16:26.131Z,4.81
2023-03-01T01:18:59.500Z,4.74
2023-03-01T01:21:33.121Z,4.78
2023-03-01T01:24:08.392Z,4.72
2023-03-01T01:26:41.063Z,4.74
2023-03-01T01:29:13.855Z,4.72
2023-03-01T01:31:46.676Z,4.65
2023-03-01T01:34:21.297Z,4.70
2023-03-01T01:36:55.410Z,4.72
2023-03-01T01:39:29.857Z,4.68
2023-03-01T01:42:03.061Z,4.72
2023-03-01T01:44:36.276Z,4.67
2023-03-01T01:47:16.435Z,4.66
2023-03-01T01:49:52.899Z,4.71
2023-03-01T01:52:29.095Z,4.64
2023-03-01T01:55:08.260Z,4.59
2023-03-01T01:57:45.254Z,4.61
2023-03-01T02:00:20.763Z,4.62
2023-03-01T02:02:58.542Z,4.54
2023-03-01T02:05:39.192Z,4.56
2023-03-01T02:08:14.693Z,4.55
2023-03-01T02:10:51.327Z,4.49
2023-03-01T02:13:24.610Z,4.49
2023-03-01T02:15:57.353Z,4.56
2023-03-01T02:18:30.338Z,4.48
2023-03-01T02:21:19.534Z,4.51
2023-03-01T02:23:52.300Z,4.47
2023-03-01T02:26:35.980Z,4.44
2023-03-01T02:29:10.607Z,4.42
2023-03-01T02:31:42.546Z,4.43
2023-03-01T02:34:18.890Z,4.41
2023-03-01T02:36:54.536Z,4.42
2023-03-01T02:39:30.980Z,4.44
2023-03-01T02:42:07.324Z,4.37
2023-03-01T02:44:41.341Z,4.36
2023-03-01T02:47:13.995Z,4.31
2023-03-01T02:49:47.564Z,4.33
2023-03-01T02:52:41.171Z,4.32
2023-03-01T02:55:18.593Z,4.39
2023-03-01T02:57:51.615Z,4.33
2023-03-01T03:00:30.715Z,4.31
2023-03-01T03:03:03.913Z,4.32
2023-03-01T03:05:36.720Z,4.27
2023-03-01T03:08:09.575Z,4.24
2023-03-01T03:10:44.053Z,4.19
2023-03-01T03:13:17.768Z,4.20
2023-03-01T03:15:52.417Z,4.24
2023-03-01T03:18:26.817Z,4.21
2023-03-01T03:21:00.154Z,4.21
2023-03-01T03:23:32.904Z,4.14
2023-03-01T03:26:06.457Z,4.17
2023-03-01T03:28:40.825Z,4.13
2023-03-01T03:31:14.864Z,4.12
2023-03-01T03:33:47.561Z,4.15
2023-03-01T03:36:23.488Z,4.11
2023-03-01T03:38:56.144Z,4.10
2023-03-01T03:41:28.890Z,4.01
2023-03-01T03:44:01.598Z,4.04
2023-03-01T03:46:36.587Z,4.03
2023-03-01T03:49:09.307Z,4.04
2023-03-01T03:51:42.270Z,3.96
2023-03-01T03:54:14.930Z,3.96
2023-03-01T03:56:47.680Z,3.96
2023-03-01T03:59:20.370Z,4.01
2023-03-01T04:01:54.448Z,3.94
2023-03-01T04:04:27.128Z,3.99
2023-03-01T04:06:59.960Z,3.98
2023-03-01T04:09:32.570Z,3.88
2023-03-01T04:12:05.552Z,3.95
2023-03-01T04:14:38.584Z,3.90
2023-03-01T04:17:12.549Z,3.93
2023-03-01T04:19:47.298Z,3.90
2023-03-01T04:22:20.375Z,3.85
2023-03-01T04:24:52.986Z,3.85
2023-03-01T04:27:25.735Z,3.82
2023-03-01T04:29:59.186Z,3.83
2023-03-01T04:32:33.349Z,3.83
2023-03-01T04:35:06.597Z,3.74
2023-03-01T04:37:39.514Z,3.70
2023-03-01T04:40:18.047Z,3.76
2023-03-01T04:42:51.290Z,3.70
2023-03-01T04:45:24.305Z,3.68
2023-03-01T04:47:59.288Z,3.67
2023-03-01T04:50:32.130Z,3.61
2023-03-01T04:53:04.733Z,3.60
2023-03-01T04:55:37.434Z,3.57
2023-03-01T04:58:10.612Z,3.53
2023-03-01T05:00:43.349Z,3.55
2023-03-01T05:03:19.101Z,3.53
2023-03-01T05:05:53.648Z,3.50
2023-03-01T05:08:26.439Z,3.56
2023-03-01T05:10:59.097Z,3.55
2023-03-01T05:13:31.808Z,3.43
2023-03-01T05:16:06.191Z,3.44
2023-03-01T05:18:41.147Z,3.42
2023-03-01T05:21:17.350Z,3.41
2023-03-01T05:23:50.804Z,3.43
2023-03-01T05:26:28.924Z,3.40
2023-03-01T05:29:01.956Z,3.46
2023-03-01T05:31:34.548Z,3.40
2023-03-01T05:34:08.633Z,3.42
2023-03-01T05:36:41.400Z,3.38
2023-03-01T05:39:14.130Z,3.39
2023-03-01T05:41:46.855Z,3.32
2023-03-01T05:44:19.540Z,3.30
2023-03-01T05:46:52.347Z,3.30
2023-03-01T05:49:26.923Z,3.28
2023-03-01T05:51:59.674Z,3.33
2023-03-01T05:54:32.959Z,3.27
2023-03-01T05:57:05.616Z,3.27
2023-03-01T05:59:38.594Z,3.26
2023-03-01T06:02:11.143Z,3.26
2023-03-01T06:04:45.358Z,3.20
2023-03-01T06:07:18.088Z,3.28
2023-03-01T06:09:51.054Z,3.24
2023-03-01T06:12:23.685Z,3.22
2023-03-01T06:14:56.336Z,3.23
2023-03-01T06:17:32.737Z,3.16
2023-03-01T06:20:09.773Z,3.18
2023-03-01T06:22:42.845Z,3.09
2023-03-01T06:25:18.747Z,3.07
2023-03-01T06:27:53.211Z,3.02
2023-03-01T06:30:27.775Z,3.01
2023-03-01T06:33:02.337Z,3.02
2023-03-01T06:35:36.648Z,3.00
2023-03-01T06:38:09.653Z,3.04
2023-03-01T06:40:43.382Z,3.06
2023-03-01T06:43:16.208Z,3.10
2023-03-01T06:45:49.016Z,2.99
2023-03-01T06:48:21.728Z,2.97
2023-03-01T06:50:56.192Z,2.89
2023-03-01T06:53:29.287Z,2.97
2023-03-01T06:56:01.922Z,2.95
2023-03-01T06:58:34.649Z,2.88
2023-03-01T07:01:08.384Z,2.90
2023-03-01T07:03:41.098Z,2.85
2023-03-01T07:06:15.748Z,2.98
2023-03-01T07:08:48.442Z,2.91
2023-03-01T07:11:21.465Z,2.90
2023-03-01T07:13:54.242Z,2.91
2023-03-01T07:16:26.996Z,2.83
2023-03-01T07:18:59.912Z,2.87
2023-03-01T07:21:35.072Z,2.89
2023-03-01T07:24:09.457Z,2.84
2023-03-01T07:26:42.353Z,2.89
2023-03-01T07:29:15.057Z,2.95
2023-03-01T07:31:48.219Z,2.90
2023-03-01T07:34:20.992Z,2.95
2023-03-01T07:36:54.991Z,2.97
2023-03-01T07:39:27.742Z,2.98
2023-03-01T07:42:01.388Z,3.04
2023-03-01T07:44:34.503Z,3.08
2023-03-01T07:47:07.328Z,3.10
2023-03-01T07:49:39.856Z,3.23
2023-03-01T07:52:14.246Z,3.19
2023-03-01T07:54:46.916Z,3.25
2023-03-01T07:57:19.822Z,3.27
2023-03-01T07:59:52.584Z,3.32
2023-03-01T08:02:25.421Z,3.36
2023-03-01T08:04:58.352Z,3.42
2023-03-01T08:07:32.381Z,3.51
2023-03-01T08:10:05.855Z,3.59
2023-03-01T08:12:38.668Z,3.57
2023-03-01T08:15:11.746Z,3.71
2023-03-01T08:17:44.555Z,3.84
2023-03-01T08:20:19.730Z,3.90
2023-03-01T08:22:54.138Z,3.95
2023-03-01T08:25:26.871Z,4.04
2023-03-01T08:27:59.784Z,4.11
2023-03-01T08:30:32.661Z,4.13
2023-03-01T08:33:05.211Z,4.20
2023-03-01T08:35:38.002Z,4.18
2023-03-01T08:38:12.314Z,4.17
2023-03-01T08:40:45.072Z,4.25
2023-03-01T08:43:18.622Z,4.35
2023-03-01T08:45:51.285Z,4.47
2023-03-01T08:48:24.215Z,4.55
2023-03-01T08:50:57.190Z,4.65
2023-03-01T08:53:31.394Z,4.66
2023-03-01T08:56:04.465Z,4.53
2023-03-01T08:58:37.618Z,4.52
2023-03-01T09:01:11.667Z,4.53
2023-03-01T09:03:45.235Z,4.61
2023-03-01T09:06:17.997Z,4.70
2023-03-01T09:08:53.338Z,4.68
2023-03-01T09:11:26.425Z,4.81
2023-03-01T09:13:59.759Z,4.85
2023-03-01T09:16:37.167Z,4.89
2023-03-01T09:19:10.143Z,4.89
2023-03-01T09:21:53.261Z,4.97
2023-03-01T09:24:27.428Z,5.06
2023-03-01T09:27:00.268Z,5.09
2023-03-01T09:29:33.047Z,5.14
2023-03-01T09:32:06.172Z,5.25
2023-03-01T09:34:59.234Z,5.34
2023-03-01T09:37:32.501Z,5.34
2023-03-01T09:40:08.826Z,5.46
2023-03-01T09:42:50.585Z,5.57
2023-03-01T09:45:35.048Z,5.53
2023-03-01T09:48:18.825Z,5.69
2023-03-01T09:50:53.255Z,5.85
2023-03-01T09:53:33.649Z,6.04
2023-03-01T09:56:19.972Z,5.96
2023-03-01T09:58:58.280Z,6.06
2023-03-01T10:01:36.187Z,6.28
2023-03-01T10:04:28.487Z,6.25
2023-03-01T10:07:15.254Z,6.32
2023-03-01T10:09:49.394Z,6.47
2023-03-01T10:12:27.445Z,6.53
2023-03-01T10:15:04.737Z,6.67
2023-03-01T10:17:41.533Z,6.72
2023-03-01T10:20:21.655Z,6.79
2023-03-01T10:22:56.434Z,6.88
2023-03-01T10:25:47.374Z,6.99
2023-03-01T10:28:27.875Z,7.20
2023-03-01T10:31:04.516Z,7.30
2023-03-01T10:33:40.754Z,7.41
2023-03-01T10:36:13.429Z,7.55
2023-03-01T10:38:53.301Z,7.76
2023-03-01T10:41:27.861Z,7.79
2023-03-01T10:44:02.044Z,7.92
2023-03-01T10:46:37.101Z,8.00
2023-03-01T10:49:16.506Z,8.19
2023-03-01T10:51:51.993Z,8.20
2023-03-01T10:54:29.843Z,8.25
2023-03-01T10:57:06.953Z,8.42
2023-03-01T10:59:41.152Z,8.64
2023-03-01T11:02:25.726Z,8.63
2023-03-01T11:05:01.064Z,8.84
2023-03-01T11:07:48.888Z,9.04
2023-03-01T11:10:25.070Z,9.09
2023-03-01T11:13:08.961Z,9.14
2023-03-01T11:15:43.953Z,9.35
2023-03-01T11:18:25.098Z,9.40
2023-03-01T11:21:06.052Z,9.40
2023-03-01T11:23:41.634Z,9.46
2023-03-01T11:26:17.225Z,9.63
2023-03-01T11:28:53.891Z,9.77
2023-03-01T11:31:28.993Z,9.80
2023-03-01T11:34:10.042Z,9.98
2023-03-01T11:36:48.811Z,10.02
2023-03-01T11:39:30.926Z,10.30
2023-03-01T11:42:18.385Z,10.23
2023-03-01T11:44:56.387Z,10.38
2023-03-01T11:47:43.876Z,10.43
2023-03-01T11:50:28.334Z,10.54
2023-03-01T11:53:14.062Z,10.59
2023-03-01T11:56:04.626Z,10.70
2023-03-01T11:58:54.141Z,10.94
2023-03-01T12:01:42.696Z,11.01
2023-03-01T12:04:49.722Z,11.05
2023-03-01T12:07:29.692Z,11.15
2023-03-01T12:10:23.969Z,11.13
2023-03-01T12:13:07.968Z,11.04
2023-03-01T12:16:05.882Z,11.31
2023-03-01T12:19:00.945Z,11.61
2023-03-01T12:21:51.828Z,11.61
2023-03-01T12:25:03.486Z,11.60
2023-03-01T12:27:53.239Z,11.74
2023-03-01T12:30:39.898Z,11.84
2023-03-01T12:33:24.338Z,11.91
2023-03-01T12:36:13.463Z,11.80
2023-03-01T12:38:52.475Z,11.94
2023-03-01T12:41:44.669Z,12.08
2023-03-01T12:44:37.532Z,12.13
2023-03-01T12:47:24.908Z,12.24
2023-03-01T12:50:02.285Z,12.27
2023-03-01T12:52:41.165Z,12.45
2023-03-01T12:55:31.095Z,12.34
2023-03-01T12:58:15.509Z,12.40
2023-03-01T13:01:05.266Z,12.57
2023-03-01T13:03:56.954Z,12.60
2023-03-01T13:06:43.274Z,12.53
2023-03-01T13:09:26.944Z,12.50
2023-03-01T13:12:02.909Z,12.42
2023-03-01T13:14:47.796Z,12.46
2023-03-01T13:17:35.543Z,12.65
2023-03-01T13:20:15.821Z,12.55
2023-03-01T13:22:54.576Z,12.67
2023-03-01T13:25:34.676Z,12.76
2023-03-01T13:28:43.023Z,12.54
2023-03-01T13:31:51.699Z,12.55
2023-03-01T13:34:45.707Z,12.63
2023-03-01T13:37:24.356Z,12.57
2023-03-01T13:39:59.973Z,12.68
2023-03-01T13:42:56.141Z,12.55
2023-03-01T13:45:40.292Z,12.43
2023-03-01T13:48:19.900Z,12.43
2023-03-01T13:50:55.025Z,12.55
2023-03-01T13:53:31.834Z,12.58
2023-03-01T13:56:10.573Z,12.56
2023-03-01T13:58:50.941Z,12.54
2023-03-01T14:01:28.354Z,12.51
2023-03-01T14:04:02.724Z,12.50
2023-03-01T14:06:36.679Z,12.50
2023-03-01T14:09:18.629Z,12.48
2023-03-01T14:12:18.378Z,12.24
2023-03-01T14:14:57.328Z,12.29
2023-03-01T14:17:48.760Z,12.29
2023-03-01T14:20:23.466Z,12.12
2023-03-01T14:22:59.420Z,12.15
2023-03-01T14:25:34.752Z,11.93
2023-03-01T14:28:19.936Z,11.74
2023-03-01T14:30:54.595Z,11.58
2023-03-01T14:33:31.309Z,11.62
2023-03-01T14:36:06.991Z,11.32
2023-03-01T14:38:41.633Z,11.20
2023-03-01T14:41:17.147Z,11.12
2023-03-01T14:43:59.209Z,11.18
2023-03-01T14:46:35.737Z,11.13
2023-03-01T14:49:14.899Z,10.95
2023-03-01T14:51:54.061Z,10.90
2023-03-01T14:54:29.634Z,10.81
2023-03-01T14:57:03.220Z,10.76
2023-03-01T14:59:36.474Z,10.60
2023-03-01T15:02:18.094Z,10.50
2023-03-01T15:04:55.276Z,10.49
2023-03-01T15:07:31.529Z,10.37
2023-03-01T15:10:06.259Z,10.27
2023-03-01T15:12:42.461Z,10.18
2023-03-01T15:15:23.623Z,10.19
2023-03-01T15:17:58.845Z,10.11
2023-03-01T15:20:37.069Z,10.21
2023-03-01T15:23:21.474Z,10.15
2023-03-01T15:25:58.320Z,10.12
2023-03-01T15:28:34.168Z,9.95
2023-03-01T15:31:20.273Z,9.87
2023-03-01T15:33:53.981Z,9.87
2023-03-01T15:36:38.934Z,9.81
2023-03-01T15:39:38.334Z,9.81
2023-03-01T15:42:35.303Z,9.68
2023-03-01T15:45:12.627Z,9.81
2023-03-01T15:47:51.206Z,9.76
2023-03-01T15:50:26.553Z,9.69
2023-03-01T15:53:02.925Z,9.67
2023-03-01T15:55:35.665Z,9.64
2023-03-01T15:58:15.456Z,9.58
2023-03-01T16:01:00.762Z,9.58
2023-03-01T16:03:34.390Z,9.46
2023-03-01T16:06:07.198Z,9.40
2023-03-01T16:08:41.992Z,9.51
2023-03-01T16:11:18.311Z,9.54
2023-03-01T16:13:51.117Z,9.48
2023-03-01T16:16:24.029Z,9.47
2023-03-01T16:18:57.029Z,9.39
2023-03-01T16:21:29.885Z,9.41
2023-03-01T16:24:04.786Z,9.43
2023-03-01T16:26:38.795Z,9.36
2023-03-01T16:29:11.698Z,9.36
2023-03-01T16:31:44.528Z,9.30
2023-03-01T16:34:17.740Z,9.24
2023-03-01T16:36:50.453Z,9.27
2023-03-01T16:39:24.621Z,9.22
2023-03-01T16:41:57.388Z,9.16
2023-03-01T16:44:30.210Z,9.12
2023-03-01T16:47:02.925Z,9.16
2023-03-01T16:49:35.743Z,9.11
2023-03-01T16:52:09.520Z,9.10
2023-03-01T16:54:43.660Z,9.09
2023-03-01T16:57:17.256Z,9.05
2023-03-01T16:59:54.221Z,9.02
2023-03-01T17:02:27.255Z,8.97
2023-03-01T17:05:00.154Z,8.98
2023-03-01T17:07:34.182Z,8.96
2023-03-01T17:10:12.751Z,8.92
2023-03-01T17:12:45.407Z,8.90
2023-03-01T17:15:18.289Z,8.89
2023-03-01T17:17:51.990Z,8.86
2023-03-01T17:20:25.513Z,8.84
2023-03-01T17:22:58.705Z,8.82
2023-03-01T17:25:33.441Z,8.74
2023-03-01T17:28:06.348Z,8.72
2023-03-01T17:30:39.099Z,8.70
2023-03-01T17:33:12.371Z,8.68
2023-03-01T17:35:48.563Z,8.68
2023-03-01T17:38:21.352Z,8.67
2023-03-01T17:40:55.537Z,8.67
2023-03-01T17:43:28.969Z,8.60
2023-03-01T17:46:02.562Z,8.59
2023-03-01T17:48:35.378Z,8.56
2023-03-01T17:51:09.870Z,8.51
2023-03-01T17:53:42.800Z,8.49
2023-03-01T17:56:17.495Z,8.13
2023-03-01T17:58:50.328Z,8.29
2023-03-01T18:01:23.567Z,8.29
2023-03-01T18:03:56.329Z,8.27
2023-03-01T18:06:30.491Z,8.18
2023-03-01T18:09:03.752Z,8.12
2023-03-01T18:11:38.105Z,8.09
2023-03-01T18:14:10.912Z,8.07
2023-03-01T18:16:43.725Z,8.01
2023-03-01T18:19:16.468Z,7.94
2023-03-01T18:21:49.325Z,7.95
2023-03-01T18:24:22.078Z,7.87
2023-03-01T18:26:56.367Z,7.88
2023-03-01T18:29:29.322Z,7.81
2023-03-01T18:32:01.862Z,7.80
2023-03-01T18:34:35.048Z,7.81
2023-03-01T18:37:09.816Z,7.74
2023-03-01T18:39:43.038Z,7.64
2023-03-01T18:42:17.195Z,7.64
2023-03-01T18:44:50.460Z,7.66
2023-03-01T18:47:23.240Z,7.68
2023-03-01T18:49:55.981Z,7.63
2023-03-01T18:52:29.134Z,7.53
2023-03-01T18:55:01.871Z,7.41
2023-03-01T18:57:36.177Z,7.41
2023-03-01T19:00:11.602Z,7.39
2023-03-01T19:02:44.409Z,7.32
2023-03-01T19:05:17.638Z,7.36
2023-03-01T19:07:52.298Z,7.44
2023-03-01T19:10:25.920Z,7.25
2023-03-01T19:13:00.120Z,7.30
2023-03-01T19:15:32.872Z,7.37
2023-03-01T19:18:06.027Z,7.38
2023-03-01T19:20:50.590Z,7.24
2023-03-01T19:23:23.506Z,7.29
2023-03-01T19:26:00.263Z,7.15
2023-03-01T19:28:34.517Z,7.28
2023-03-01T19:31:09.319Z,7.21
2023-03-01T19:33:43.149Z,7.05
2023-03-01T19:36:15.898Z,7.09
2023-03-01T19:38:49.515Z,7.10
2023-03-01T19:41:22.671Z,7.13
2023-03-01T19:43:57.422Z,6.97
2023-03-01T19:46:30.638Z,6.99
2023-03-01T19:49:04.577Z,6.98
2023-03-01T19:51:39.328Z,7.01
2023-03-01T19:54:14.913Z,6.99
2023-03-01T19:56:48.018Z,6.93
2023-03-01T19:59:24.577Z,6.82
2023-03-01T20:01:58.777Z,6.85
2023-03-01T20:04:31.875Z,6.86
2023-03-01T20:07:04.996Z,6.86
2023-03-01T20:09:38.067Z,6.89
2023-03-01T20:12:10.780Z,6.84
2023-03-01T20:14:45.123Z,6.79
2023-03-01T20:17:18.111Z,6.68
2023-03-01T20:19:51.152Z,6.76
2023-03-01T20:22:23.889Z,6.70
2023-03-01T20:24:56.637Z,6.77
2023-03-01T20:27:29.682Z,6.73
2023-03-01T20:30:04.152Z,6.66
2023-03-01T20:32:36.975Z,6.68
2023-03-01T20:35:10.782Z,6.67
2023-03-01T20:37:43.565Z,6.69
2023-03-01T20:40:16.767Z,6.67
2023-03-01T20:42:49.626Z,6.64
2023-03-01T20:45:23.838Z,6.56
2023-03-01T20:47:56.492Z,6.67
2023-03-01T20:50:29.218Z,6.64
2023-03-01T20:53:01.865Z,6.59
2023-03-01T20:55:34.941Z,6.59
2023-03-01T20:58:08.047Z,6.61
2023-03-01T21:00:42.197Z,6.54
2023-03-01T21:03:15.027Z,6.56
2023-03-01T21:05:48.033Z,6.50
2023-03-01T21:08:20.826Z,6.53
2023-03-01T21:10:56.279Z,6.50
2023-03-01T21:13:29.837Z,6.50
2023-03-01T21:16:07.885Z,6.46
2023-03-01T21:18:41.369Z,6.44
2023-03-01T21:21:16.038Z,6.40
2023-03-01T21:23:49.126Z,6.34
2023-03-01T21:26:23.695Z,6.34
2023-03-01T21:28:57.688Z,6.38
2023-03-01T21:31:34.867Z,6.43
2023-03-01T21:34:08.170Z,6.31
2023-03-01T21:36:41.016Z,6.25
2023-03-01T21:39:15.751Z,6.25
2023-03-01T21:41:50.902Z,6.21
2023-03-01T21:44:23.953Z,6.21
2023-03-01T21:46:59.101Z,6.28
2023-03-01T21:49:32.106Z,6.17
2023-03-01T21:52:05.026Z,6.16
2023-03-01T21:54:37.954Z,6.20
2023-03-01T21:57:10.838Z,6.14
2023-03-01T21:59:43.680Z,6.10
2023-03-01T22:02:17.858Z,6.05
2023-03-01T22:04:57.250Z,6.05
2023-03-01T22:07:31.932Z,6.00
2023-03-01T22:10:05.119Z,6.01
2023-03-01T22:12:38.485Z,5.92
2023-03-01T22:15:11.481Z,5.90
2023-03-01T22:17:45.678Z,5.99
2023-03-01T22:20:18.971Z,5.93
2023-03-01T22:22:52.315Z,5.87
2023-03-01T22:25:26.568Z,5.91
2023-03-01T22:28:00.232Z,5.80
2023-03-01T22:30:33.230Z,5.81
2023-03-01T22:33:07.716Z,5.84
2023-03-01T22:35:42.967Z,5.81
2023-03-01T22:38:15.964Z,5.79
2023-03-01T22:40:56.409Z,5.83
2023-03-01T22:43:30.782Z,5.76
2023-03-01T22:46:11.493Z,5.80
2023-03-01T22:48:46.842Z,5.74
2023-03-01T22:51:22.745Z,5.72
2023-03-01T22:53:56.297Z,5.71
2023-03-01T22:56:31.903Z,5.69
2023-03-01T22:59:09.845Z,5.60
2023-03-01T23:01:46.477Z,5.60
2023-03-01T23:04:22.779Z,5.63
2023-03-01T23:06:55.738Z,5.58
2023-03-01T23:09:31.505Z,5.51
2023-03-01T23:12:07.357Z,5.45
2023-03-01T23:14:41.691Z,5.41
2023-03-01T23:17:14.698Z,5.48
2023-03-01T23:19:51.413Z,5.54
2023-03-01T23:22:24.616Z,5.49
2023-03-01T23:24:57.570Z,5.52
2023-03-01T23:27:30.584Z,5.47
2023-03-01T23:30:03.778Z,5.50
2023-03-01T23:32:40.528Z,5.53
2023-03-01T23:35:15.449Z,5.49
2023-03-01T23:37:48.620Z,5.39
2023-03-01T23:40:21.882Z,5.52
2023-03-01T23:42:54.702Z,5.44
2023-03-01T23:45:27.729Z,5.46
2023-03-01T23:48:00.740Z,5.44
2023-03-01T23:50:41.773Z,5.54
2023-03-01T23:53:17.863Z,5.49
2023-03-01T23:55:53.335Z,5.46
2023-03-01T23:58:28.523Z,5.42
